createdAt,value
2019-02-17T00:01:52.780Z,101501.80
2019-02-17T00:03:26.620Z,101500.81
2019-02-17T00:05:00.524Z,101500.98
2019-02-17T00:06:34.530Z,101504.33
2019-02-17T00:08:07.793Z,101500.80
2019-02-17T00:09:42.543Z,101503.48
2019-02-17T00:11:16.349Z,101503.99
2019-02-17T00:12:50.339Z,101505.84
2019-02-17T00:14:24.654Z,101508.71
2019-02-17T00:15:58.557Z,101519.13
2019-02-17T00:17:32.458Z,101530.06
2019-02-17T00:19:06.441Z,101537.80
2019-02-17T00:20:40.213Z,101539.98
2019-02-17T00:22:13.968Z,101539.47
2019-02-17T00:23:47.785Z,101543.84
2019-02-17T00:25:20.681Z,101546.20
2019-02-17T00:26:53.553Z,101542.83
2019-02-17T00:28:26.494Z,101538.30
2019-02-17T00:30:00.502Z,101553.41
2019-02-17T00:31:34.304Z,101557.77
2019-02-17T00:33:07.472Z,101565.66
2019-02-17T00:34:41.477Z,101562.13
2019-02-17T00:36:15.703Z,101568.20
2019-02-17T00:37:49.505Z,101573.08
2019-02-17T00:39:23.794Z,101575.77
2019-02-17T00:40:58.024Z,101580.64
2019-02-17T00:42:32.950Z,101588.53
2019-02-17T00:44:06.855Z,101591.55
2019-02-17T00:45:40.907Z,101595.59
2019-02-17T00:47:14.657Z,101591.22
2019-02-17T00:48:48.625Z,101594.58
2019-02-17T00:50:22.363Z,101602.64
2019-02-17T00:51:56.364Z,101606.00
2019-02-17T00:53:30.184Z,101600.62
2019-02-17T00:55:04.297Z,101606.36
2019-02-17T00:56:38.163Z,101612.91
2019-02-17T00:58:12.103Z,101616.44
2019-02-17T00:59:45.983Z,101618.62
2019-02-17T01:01:19.886Z,101616.77
2019-02-17T01:02:54.073Z,101611.72
2019-02-17T01:04:28.095Z,101617.10
2019-02-17T01:06:02.824Z,101620.63
2019-02-17T01:07:36.707Z,101619.80
2019-02-17T01:09:10.832Z,101627.86
2019-02-17T01:10:44.777Z,101625.86
2019-02-17T01:12:18.631Z,101624.33
2019-02-17T01:13:52.660Z,101629.38
2019-02-17T01:15:26.550Z,101633.41
2019-02-17T01:17:00.379Z,101632.24
2019-02-17T01:18:34.349Z,101644.02
2019-02-17T01:20:08.334Z,101640.96
2019-02-17T01:21:42.459Z,101650.04
2019-02-17T01:23:16.721Z,101652.39
2019-02-17T01:24:50.653Z,101648.20
2019-02-17T01:26:24.576Z,101649.02
2019-02-17T01:27:58.766Z,101653.73
2019-02-17T01:29:32.869Z,101658.44
2019-02-17T01:31:08.526Z,101658.78
2019-02-17T01:32:42.129Z,101663.30
2019-02-17T01:34:21.152Z,101659.42
2019-02-17T01:35:55.055Z,101670.84
2019-02-17T01:37:29.060Z,101682.61
2019-02-17T01:39:02.759Z,101686.45
2019-02-17T01:40:36.715Z,101685.61
2019-02-17T01:42:10.768Z,101685.92
2019-02-17T01:43:44.538Z,101686.94
2019-02-17T01:45:18.553Z,101684.05
2019-02-17T01:46:52.431Z,101685.22
2019-02-17T01:48:26.312Z,101683.38
2019-02-17T01:50:00.379Z,101690.59
2019-02-17T01:51:34.488Z,101685.03
2019-02-17T01:53:08.596Z,101679.82
2019-02-17T01:54:42.702Z,101680.16
2019-02-17T01:56:17.628Z,101686.88
2019-02-17T01:57:51.620Z,101690.91
2019-02-17T01:59:30.664Z,101694.27
2019-02-17T02:00:59.231Z,101693.76
2019-02-17T02:02:33.140Z,101694.94
2019-02-17T02:04:07.127Z,101710.22
2019-02-17T02:05:41.485Z,101709.04
2019-02-17T02:07:15.559Z,101711.22
2019-02-17T02:08:50.473Z,101705.34
2019-02-17T02:10:24.695Z,101710.22
2019-02-17T02:11:58.479Z,101709.38
2019-02-17T02:13:32.600Z,101709.38
2019-02-17T02:15:06.608Z,101720.96
2019-02-17T02:16:40.764Z,101721.13
2019-02-17T02:18:14.925Z,101724.82
2019-02-17T02:19:49.825Z,101727.67
2019-02-17T02:21:23.625Z,101723.31
2019-02-17T02:22:57.733Z,101721.13
2019-02-17T02:24:31.760Z,101723.45
2019-02-17T02:26:05.654Z,101724.79
2019-02-17T02:27:39.771Z,101711.02
2019-02-17T02:29:14.773Z,101712.36
2019-02-17T02:30:49.602Z,101718.74
2019-02-17T02:32:23.628Z,101717.06
2019-02-17T02:33:57.701Z,101715.38
2019-02-17T02:35:31.843Z,101727.14
2019-02-17T02:37:05.830Z,101723.11
2019-02-17T02:38:40.770Z,101727.84
2019-02-17T02:40:14.790Z,101715.72
2019-02-17T02:41:48.788Z,101725.83
2019-02-17T02:43:22.991Z,101724.82
2019-02-17T02:44:57.712Z,101723.81
2019-02-17T02:46:31.513Z,101728.19
2019-02-17T02:48:05.313Z,101722.30
2019-02-17T02:49:39.054Z,101720.80
2019-02-17T02:51:12.990Z,101716.26
2019-02-17T02:52:46.885Z,101721.16
2019-02-17T02:54:21.021Z,101725.53
2019-02-17T02:55:55.004Z,101728.55
2019-02-17T02:57:28.761Z,101735.27
2019-02-17T02:59:02.940Z,101729.22
2019-02-17T03:00:36.748Z,101731.91
2019-02-17T03:02:10.843Z,101729.56
2019-02-17T03:03:46.102Z,101729.56
2019-02-17T03:05:18.682Z,101729.56
2019-02-17T03:07:10.050Z,101731.91
2019-02-17T03:08:43.859Z,101738.30
2019-02-17T03:10:17.972Z,101745.02
2019-02-17T03:11:52.076Z,101745.02
2019-02-17T03:13:26.215Z,101742.48
2019-02-17T03:15:00.736Z,101748.37
2019-02-17T03:16:35.116Z,101748.87
2019-02-17T03:18:09.375Z,101748.87
2019-02-17T03:19:43.428Z,101749.04
2019-02-17T03:21:17.125Z,101750.89
2019-02-17T03:22:51.031Z,101755.09
2019-02-17T03:24:25.317Z,101757.44
2019-02-17T03:25:59.437Z,101761.09
2019-02-17T03:27:33.428Z,101762.77
2019-02-17T03:29:07.323Z,101765.45
2019-02-17T03:30:41.360Z,101765.08
2019-02-17T03:32:15.384Z,101763.02
2019-02-17T03:33:50.175Z,101761.47
2019-02-17T03:35:24.195Z,101763.42
2019-02-17T03:36:58.607Z,101770.30
2019-02-17T03:38:32.723Z,101773.60
2019-02-17T03:40:06.697Z,101765.83
2019-02-17T03:41:40.481Z,101768.50
2019-02-17T03:43:14.563Z,101772.30
2019-02-17T03:44:48.836Z,101772.08
2019-02-17T03:46:22.841Z,101782.42
2019-02-17T03:47:56.639Z,101780.22
2019-02-17T03:49:30.545Z,101779.98
2019-02-17T03:51:04.443Z,101781.94
2019-02-17T03:52:38.365Z,101786.10
2019-02-17T03:54:12.331Z,101790.56
2019-02-17T03:55:46.133Z,101788.49
2019-02-17T03:57:19.877Z,101787.97
2019-02-17T03:58:52.797Z,101781.20
2019-02-17T04:00:26.687Z,101781.02
2019-02-17T04:02:00.608Z,101785.36
2019-02-17T04:03:34.642Z,101779.31
2019-02-17T04:05:09.463Z,101774.58
2019-02-17T04:06:43.468Z,101776.08
2019-02-17T04:08:17.370Z,101773.21
2019-02-17T04:09:52.404Z,101768.11
2019-02-17T04:11:26.203Z,101778.36
2019-02-17T04:13:00.192Z,101767.42
2019-02-17T04:14:34.087Z,101783.50
2019-02-17T04:16:08.214Z,101781.11
2019-02-17T04:17:42.013Z,101778.73
2019-02-17T04:19:15.903Z,101784.25
2019-02-17T04:20:49.616Z,101785.87
2019-02-17T04:22:23.725Z,101787.72
2019-02-17T04:23:57.009Z,101788.06
2019-02-17T04:25:30.710Z,101788.06
2019-02-17T04:27:05.018Z,101786.44
2019-02-17T04:28:39.005Z,101796.01
2019-02-17T04:30:13.027Z,101788.62
2019-02-17T04:31:46.907Z,101803.27
2019-02-17T04:33:20.814Z,101801.77
2019-02-17T04:34:54.908Z,101804.64
2019-02-17T04:36:29.354Z,101797.44
2019-02-17T04:38:03.236Z,101809.34
2019-02-17T04:39:37.202Z,101807.84
2019-02-17T04:41:11.368Z,101810.41
2019-02-17T04:42:45.356Z,101810.59
2019-02-17T04:44:19.379Z,101811.09
2019-02-17T04:45:53.363Z,101811.77
2019-02-17T04:47:27.076Z,101810.77
2019-02-17T04:49:00.964Z,101810.28
2019-02-17T04:50:34.884Z,101813.95
2019-02-17T04:52:09.567Z,101812.45
2019-02-17T04:53:43.506Z,101806.91
2019-02-17T04:55:17.207Z,101809.25
2019-02-17T04:56:51.289Z,101809.06
2019-02-17T04:58:24.476Z,101808.34
2019-02-17T04:59:58.404Z,101797.53
2019-02-17T05:01:32.303Z,101810.47
2019-02-17T05:03:06.119Z,101807.88
2019-02-17T05:04:39.999Z,101800.77
2019-02-17T05:06:14.112Z,101809.13
2019-02-17T05:07:48.201Z,101812.12
2019-02-17T05:09:22.210Z,101813.23
2019-02-17T05:10:56.232Z,101820.59
2019-02-17T05:12:30.344Z,101832.30
2019-02-17T05:14:05.456Z,101833.45
2019-02-17T05:15:39.351Z,101826.37
2019-02-17T05:17:13.117Z,101829.70
2019-02-17T05:18:47.242Z,101839.93
2019-02-17T05:20:22.100Z,101838.81
2019-02-17T05:21:56.003Z,101848.19
2019-02-17T05:23:29.986Z,101847.54
2019-02-17T05:25:03.955Z,101845.70
2019-02-17T05:26:36.971Z,101843.71
2019-02-17T05:28:10.984Z,101852.31
2019-02-17T05:29:44.727Z,101848.98
2019-02-17T05:31:18.588Z,101856.87
2019-02-17T05:32:52.602Z,101853.04
2019-02-17T05:34:26.594Z,101856.41
2019-02-17T05:36:00.490Z,101846.06
2019-02-17T05:37:34.494Z,101849.43
2019-02-17T05:39:08.519Z,101838.70
2019-02-17T05:40:42.633Z,101840.23
2019-02-17T05:42:16.404Z,101842.27
2019-02-17T05:43:50.643Z,101838.40
2019-02-17T05:45:25.334Z,101840.42
2019-02-17T05:46:59.044Z,101847.63
2019-02-17T05:48:32.738Z,101848.97
2019-02-17T05:50:06.758Z,101858.00
2019-02-17T05:51:41.557Z,101860.53
2019-02-17T05:53:15.382Z,101859.19
2019-02-17T05:54:50.513Z,101867.45
2019-02-17T05:56:23.389Z,101862.09
2019-02-17T05:57:57.478Z,101863.77
2019-02-17T05:59:31.254Z,101846.44
2019-02-17T06:01:07.404Z,101858.95
2019-02-17T06:02:41.030Z,101861.63
2019-02-17T06:04:14.992Z,101858.33
2019-02-17T06:05:48.857Z,101861.84
2019-02-17T06:07:22.756Z,101873.76
2019-02-17T06:08:56.682Z,101871.42
2019-02-17T06:10:31.495Z,101871.77
2019-02-17T06:12:05.486Z,101877.13
2019-02-17T06:13:39.457Z,101875.97
2019-02-17T06:15:13.415Z,101876.81
2019-02-17T06:16:47.489Z,101877.19
2019-02-17T06:18:21.304Z,101874.13
2019-02-17T06:19:55.219Z,101889.63
2019-02-17T06:21:29.207Z,101879.25
2019-02-17T06:23:03.902Z,101884.83
2019-02-17T06:24:37.923Z,101878.47
2019-02-17T06:26:13.170Z,101882.34
2019-02-17T06:27:47.389Z,101888.05
2019-02-17T06:29:21.280Z,101889.23
2019-02-17T06:30:55.488Z,101890.07
2019-02-17T06:32:30.312Z,101900.14
2019-02-17T06:34:04.361Z,101901.48
2019-02-17T06:35:38.362Z,101900.52
2019-02-17T06:37:12.534Z,101899.52
2019-02-17T06:38:46.823Z,101902.55
2019-02-17T06:40:21.770Z,101900.55
2019-02-17T06:41:56.696Z,101907.26
2019-02-17T06:43:30.700Z,101903.89
2019-02-17T06:45:05.016Z,101913.65
2019-02-17T06:46:43.216Z,101919.02
2019-02-17T06:48:17.426Z,101910.12
2019-02-17T06:49:51.453Z,101910.00
2019-02-17T06:51:25.752Z,101912.38
2019-02-17T06:52:59.821Z,101915.73
2019-02-17T06:54:33.753Z,101912.56
2019-02-17T06:57:10.814Z,101916.42
2019-02-17T06:58:45.026Z,101921.16
2019-02-17T07:00:25.096Z,101919.83
2019-02-17T07:02:00.018Z,101926.38
2019-02-17T07:03:33.934Z,101929.06
2019-02-17T07:05:16.038Z,101926.72
2019-02-17T07:06:54.330Z,101933.61
2019-02-17T07:08:28.441Z,101925.88
2019-02-17T07:10:02.333Z,101927.75
2019-02-17T07:11:36.048Z,101930.27
2019-02-17T07:13:10.135Z,101926.62
2019-02-17T07:14:44.123Z,101929.99
2019-02-17T07:16:18.130Z,101933.02
2019-02-17T07:17:52.085Z,101934.55
2019-02-17T07:19:25.653Z,101937.58
2019-02-17T07:20:59.638Z,101935.45
2019-02-17T07:22:33.533Z,101937.63
2019-02-17T07:24:06.455Z,101936.29
2019-02-17T07:25:40.510Z,101938.00
2019-02-17T07:27:14.519Z,101944.92
2019-02-17T07:28:48.409Z,101944.61
2019-02-17T07:30:22.653Z,101941.27
2019-02-17T07:31:56.990Z,101937.30
2019-02-17T07:33:30.971Z,101939.33
2019-02-17T07:35:04.872Z,101932.27
2019-02-17T07:36:38.775Z,101946.44
2019-02-17T07:38:12.680Z,101940.41
2019-02-17T07:39:46.694Z,101934.22
2019-02-17T07:41:21.403Z,101936.11
2019-02-17T07:42:55.511Z,101939.48
2019-02-17T07:44:29.340Z,101943.19
2019-02-17T07:46:03.519Z,101941.34
2019-02-17T07:47:38.529Z,101944.25
2019-02-17T07:49:12.553Z,101945.59
2019-02-17T07:50:46.971Z,101946.93
2019-02-17T07:52:20.751Z,101945.25
2019-02-17T07:53:54.774Z,101944.53
2019-02-17T07:55:28.675Z,101945.87
2019-02-17T07:57:02.478Z,101939.32
2019-02-17T07:58:36.404Z,101948.37
2019-02-17T08:00:10.262Z,101952.56
2019-02-17T08:01:45.628Z,101954.91
2019-02-17T08:03:19.929Z,101958.25
2019-02-17T08:04:53.861Z,101957.75
2019-02-17T08:06:28.141Z,101955.91
2019-02-17T08:08:01.940Z,101958.28
2019-02-17T08:09:35.846Z,101951.22
2019-02-17T08:11:09.765Z,101957.67
2019-02-17T08:12:44.260Z,101955.01
2019-02-17T08:14:18.372Z,101963.80
2019-02-17T08:15:52.250Z,101958.66
2019-02-17T08:17:25.356Z,101965.45
2019-02-17T08:18:59.239Z,101959.64
2019-02-17T08:20:36.392Z,101953.83
2019-02-17T08:22:07.951Z,101957.25
2019-02-17T08:23:41.119Z,101946.05
2019-02-17T08:25:21.953Z,101950.64
2019-02-17T08:26:49.490Z,101952.70
2019-02-17T08:28:22.212Z,101955.58
2019-02-17T08:29:56.145Z,101964.36
2019-02-17T08:31:29.325Z,101963.56
2019-02-17T08:33:03.105Z,101962.34
2019-02-17T08:34:37.259Z,101966.08
2019-02-17T08:36:11.160Z,101967.77
2019-02-17T08:37:44.954Z,101969.45
2019-02-17T08:39:19.987Z,101968.10
2019-02-17T08:40:54.033Z,101971.67
2019-02-17T08:42:28.304Z,101969.16
2019-02-17T08:44:02.901Z,101970.55
2019-02-17T08:45:36.930Z,101972.77
2019-02-17T08:47:11.729Z,101971.12
2019-02-17T08:48:45.796Z,101971.33
2019-02-17T08:50:21.899Z,101978.05
2019-02-17T08:51:55.912Z,101978.45
2019-02-17T08:53:29.744Z,101977.44
2019-02-17T08:55:03.802Z,101987.23
2019-02-17T08:56:37.805Z,101981.03
2019-02-17T08:58:11.638Z,101980.88
2019-02-17T08:59:45.635Z,101985.63
2019-02-17T09:01:19.850Z,101981.61
2019-02-17T09:02:53.752Z,101977.91
2019-02-17T09:04:28.657Z,101983.64
2019-02-17T09:06:02.474Z,101975.05
2019-02-17T09:07:36.990Z,101975.56
2019-02-17T09:09:10.911Z,101979.59
2019-02-17T09:10:44.898Z,101980.95
2019-02-17T09:12:19.618Z,101987.00
2019-02-17T09:13:53.920Z,101998.97
2019-02-17T09:15:28.275Z,101985.00
2019-02-17T09:17:01.932Z,102001.48
2019-02-17T09:18:36.280Z,102003.34
2019-02-17T09:20:10.249Z,102008.57
2019-02-17T09:21:44.311Z,102003.48
2019-02-17T09:23:18.654Z,102006.19
2019-02-17T09:24:51.970Z,101996.08
2019-02-17T09:26:25.766Z,101995.05
2019-02-17T09:27:59.690Z,101995.06
2019-02-17T09:29:34.576Z,101997.41
2019-02-17T09:31:07.647Z,101999.42
2019-02-17T09:32:41.447Z,102012.26
2019-02-17T09:34:15.203Z,102018.30
2019-02-17T09:35:49.294Z,102012.38
2019-02-17T09:37:23.580Z,102016.05
2019-02-17T09:38:56.952Z,102008.41
2019-02-17T09:40:31.908Z,102008.77
2019-02-17T09:42:04.893Z,102007.68
2019-02-17T09:43:39.690Z,102001.88
2019-02-17T09:45:12.578Z,102008.58
2019-02-17T09:46:45.488Z,102002.11
2019-02-17T09:48:19.530Z,102009.80
2019-02-17T09:49:52.424Z,102007.03
2019-02-17T09:51:25.305Z,102008.47
2019-02-17T09:52:59.225Z,102011.62
2019-02-17T09:54:32.228Z,102013.89
2019-02-17T09:56:06.129Z,102011.97
2019-02-17T09:57:39.214Z,102009.36
2019-02-17T09:59:12.132Z,102007.95
2019-02-17T10:00:46.193Z,102017.05
2019-02-17T10:02:26.602Z,102020.06
2019-02-17T10:03:56.249Z,102019.55
2019-02-17T10:05:31.909Z,102026.42
2019-02-17T10:07:05.805Z,102025.38
2019-02-17T10:08:39.566Z,102028.54
2019-02-17T10:10:14.119Z,102033.41
2019-02-17T10:11:48.000Z,102028.67
2019-02-17T10:13:20.906Z,102030.27
2019-02-17T10:14:55.202Z,102028.57
2019-02-17T10:16:28.932Z,102028.81
2019-02-17T10:18:02.940Z,102031.13
2019-02-17T10:19:36.928Z,102035.92
2019-02-17T10:21:10.733Z,102029.33
2019-02-17T10:22:44.726Z,102033.90
2019-02-17T10:24:19.232Z,102034.57
2019-02-17T10:25:53.116Z,102032.63
2019-02-17T10:27:27.442Z,102038.98
2019-02-17T10:29:01.347Z,102043.94
2019-02-17T10:30:35.349Z,102042.02
2019-02-17T10:32:10.388Z,102041.38
2019-02-17T10:33:44.179Z,102043.89
2019-02-17T10:35:18.182Z,102042.28
2019-02-17T10:36:51.872Z,102049.87
2019-02-17T10:38:25.948Z,102041.67
2019-02-17T10:39:59.889Z,102038.87
2019-02-17T10:41:33.690Z,102036.30
2019-02-17T10:43:07.492Z,102035.09
2019-02-17T10:44:41.384Z,102047.36
2019-02-17T10:46:15.191Z,102048.98
2019-02-17T10:47:48.366Z,102045.91
2019-02-17T10:49:22.281Z,102050.62
2019-02-17T10:50:55.276Z,102043.09
2019-02-17T10:52:29.368Z,102043.70
2019-02-17T10:54:03.482Z,102047.91
2019-02-17T10:55:37.634Z,102040.80
2019-02-17T10:57:12.613Z,102035.02
2019-02-17T10:58:46.622Z,102037.17
2019-02-17T11:00:21.473Z,102036.95
2019-02-17T11:01:55.415Z,102038.30
2019-02-17T11:03:31.395Z,102035.89
2019-02-17T11:05:05.795Z,102041.19
2019-02-17T11:06:40.069Z,102043.72
2019-02-17T11:08:13.114Z,102038.20
2019-02-17T11:09:47.242Z,102041.63
2019-02-17T11:11:21.144Z,102047.14
2019-02-17T11:12:54.279Z,102053.45
2019-02-17T11:14:29.026Z,102056.41
2019-02-17T11:16:04.225Z,102048.59
2019-02-17T11:17:37.093Z,102053.42
2019-02-17T11:19:09.960Z,102051.19
2019-02-17T11:20:43.834Z,102048.08
2019-02-17T11:22:23.192Z,102048.64
2019-02-17T11:23:51.979Z,102051.95
2019-02-17T11:25:24.682Z,102051.63
2019-02-17T11:26:58.819Z,102054.78
2019-02-17T11:28:32.659Z,102059.20
2019-02-17T11:30:06.689Z,102058.88
2019-02-17T11:31:40.449Z,102056.84
2019-02-17T11:33:14.194Z,102052.38
2019-02-17T11:34:48.213Z,102054.81
2019-02-17T11:36:22.424Z,102052.14
2019-02-17T11:37:56.627Z,102054.98
2019-02-17T11:39:31.457Z,102060.80
2019-02-17T11:41:05.484Z,102060.69
2019-02-17T11:42:39.569Z,102060.08
2019-02-17T11:44:13.579Z,102059.80
2019-02-17T11:45:47.368Z,102057.10
2019-02-17T11:47:52.055Z,102060.50
2019-02-17T11:49:25.823Z,102061.88
2019-02-17T11:50:58.842Z,102057.45
2019-02-17T11:52:32.885Z,102053.58
2019-02-17T11:54:06.990Z,102056.94
2019-02-17T11:55:40.995Z,102055.22
2019-02-17T11:57:15.012Z,102061.11
2019-02-17T11:58:47.649Z,102058.48
2019-02-17T12:00:24.475Z,102059.05
2019-02-17T12:01:58.277Z,102047.56
2019-02-17T12:03:32.940Z,102044.00
2019-02-17T12:05:06.761Z,102042.59
2019-02-17T12:06:40.703Z,102040.19
2019-02-17T12:08:14.445Z,102044.79
2019-02-17T12:09:48.392Z,102041.80
2019-02-17T12:11:21.346Z,102040.72
2019-02-17T12:12:55.138Z,102043.70
2019-02-17T12:14:28.831Z,102042.88
2019-02-17T12:16:03.779Z,102039.48
2019-02-17T12:17:37.891Z,102037.61
2019-02-17T12:19:12.374Z,102035.25
2019-02-17T12:21:09.477Z,102034.67
2019-02-17T12:22:46.345Z,102037.84
2019-02-17T12:24:22.149Z,102041.38
2019-02-17T12:26:16.230Z,102045.31
2019-02-17T12:28:02.464Z,102046.36
2019-02-17T12:29:40.533Z,102048.48
2019-02-17T12:31:14.530Z,102046.47
2019-02-17T12:32:48.541Z,102049.70
2019-02-17T12:34:23.479Z,102052.64
2019-02-17T12:35:58.083Z,102055.25
2019-02-17T12:37:31.088Z,102055.05
2019-02-17T12:39:04.041Z,102059.05
2019-02-17T12:40:37.334Z,102059.96
2019-02-17T12:42:12.034Z,102058.81
2019-02-17T12:43:45.753Z,102057.50
2019-02-17T12:45:19.781Z,102056.16
2019-02-17T12:46:53.618Z,102051.90
2019-02-17T12:48:27.453Z,102049.60
2019-02-17T12:50:01.199Z,102049.87
2019-02-17T12:51:35.033Z,102054.84
2019-02-17T12:53:09.179Z,102045.79
2019-02-17T12:54:42.058Z,102050.87
2019-02-17T12:56:16.053Z,102047.80
2019-02-17T12:57:50.161Z,102058.66
2019-02-17T12:59:24.061Z,102054.02
2019-02-17T13:00:57.934Z,102055.42
2019-02-17T13:02:31.767Z,102054.13
2019-02-17T13:04:05.669Z,102056.09
2019-02-17T13:05:39.634Z,102060.74
2019-02-17T13:07:15.290Z,102054.21
2019-02-17T13:08:49.192Z,102054.30
2019-02-17T13:10:24.060Z,102052.16
2019-02-17T13:11:58.259Z,102052.05
2019-02-17T13:13:32.259Z,102056.73
2019-02-17T13:15:06.326Z,102044.68
2019-02-17T13:16:40.223Z,102056.47
2019-02-17T13:18:14.169Z,102051.44
2019-02-17T13:19:49.097Z,102051.61
2019-02-17T13:21:23.109Z,102050.53
2019-02-17T13:22:57.208Z,102051.33
2019-02-17T13:24:30.987Z,102049.45
2019-02-17T13:26:05.319Z,102051.97
2019-02-17T13:27:40.965Z,102056.55
2019-02-17T13:29:15.273Z,102057.07
2019-02-17T13:30:50.206Z,102058.43
2019-02-17T13:32:24.205Z,102057.47
2019-02-17T13:33:58.111Z,102060.87
2019-02-17T13:35:32.017Z,102062.23
2019-02-17T13:37:06.823Z,102060.03
2019-02-17T13:38:40.743Z,102067.73
2019-02-17T13:40:14.645Z,102066.06
2019-02-17T13:41:48.866Z,102069.98
2019-02-17T13:43:22.816Z,102072.25
2019-02-17T13:44:56.780Z,102073.29
2019-02-17T13:46:30.731Z,102079.59
2019-02-17T13:48:04.746Z,102076.12
2019-02-17T13:49:38.451Z,102077.52
2019-02-17T13:51:12.310Z,102078.75
2019-02-17T13:52:46.268Z,102073.05
2019-02-17T13:54:20.071Z,102067.19
2019-02-17T13:55:54.794Z,102068.73
2019-02-17T13:57:29.716Z,102075.72
2019-02-17T13:59:03.721Z,102072.33
2019-02-17T14:00:38.750Z,102074.04
2019-02-17T14:02:12.662Z,102066.59
2019-02-17T14:03:48.889Z,102066.66
2019-02-17T14:05:21.069Z,102064.98
2019-02-17T14:06:54.954Z,102065.66
2019-02-17T14:08:31.325Z,102064.70
2019-02-17T14:10:04.212Z,102066.58
2019-02-17T14:11:38.934Z,102068.13
2019-02-17T14:13:12.700Z,102070.00
2019-02-17T14:14:47.062Z,102069.84
2019-02-17T14:16:20.941Z,102066.48
2019-02-17T14:17:55.875Z,102067.52
2019-02-17T14:19:29.741Z,102076.69
2019-02-17T14:21:03.559Z,102070.11
2019-02-17T14:22:38.512Z,102072.49
2019-02-17T14:24:12.300Z,102075.56
2019-02-17T14:25:46.434Z,102077.31
2019-02-17T14:27:20.250Z,102077.67
2019-02-17T14:28:53.982Z,102072.61
2019-02-17T14:30:30.388Z,102076.67
2019-02-17T14:32:01.930Z,102067.25
2019-02-17T14:33:36.741Z,102066.12
2019-02-17T14:35:10.753Z,102073.47
2019-02-17T14:36:44.605Z,102072.47
2019-02-17T14:38:18.961Z,102069.20
2019-02-17T14:39:53.827Z,102076.58
2019-02-17T14:41:27.566Z,102078.17
2019-02-17T14:43:01.606Z,102078.53
2019-02-17T14:44:35.276Z,102068.78
2019-02-17T14:46:10.232Z,102073.59
2019-02-17T14:47:44.938Z,102076.77
2019-02-17T14:49:18.915Z,102077.60
2019-02-17T14:50:53.977Z,102076.66
2019-02-17T14:52:27.820Z,102080.39
2019-02-17T14:54:01.549Z,102082.27
2019-02-17T14:55:35.422Z,102085.02
2019-02-17T14:57:09.156Z,102088.46
2019-02-17T14:58:43.073Z,102081.25
2019-02-17T15:00:17.091Z,102088.23
2019-02-17T15:01:50.981Z,102081.86
2019-02-17T15:03:24.998Z,102076.82
2019-02-17T15:04:58.789Z,102080.23
2019-02-17T15:06:32.866Z,102074.51
2019-02-17T15:08:06.687Z,102074.88
2019-02-17T15:09:40.702Z,102075.22
2019-02-17T15:11:13.767Z,102069.81
2019-02-17T15:12:47.445Z,102067.63
2019-02-17T15:14:21.530Z,102062.39
2019-02-17T15:15:55.592Z,102066.97
2019-02-17T15:17:29.615Z,102060.39
2019-02-17T15:19:03.465Z,102064.50
2019-02-17T15:20:37.497Z,102070.25
2019-02-17T15:22:11.378Z,102070.30
2019-02-17T15:23:46.127Z,102071.34
2019-02-17T15:25:21.050Z,102071.02
2019-02-17T15:26:55.057Z,102072.42
2019-02-17T15:28:29.657Z,102069.40
2019-02-17T15:30:03.795Z,102085.85
2019-02-17T15:31:37.776Z,102080.97
2019-02-17T15:33:11.921Z,102086.92
2019-02-17T15:34:46.764Z,102083.90
2019-02-17T15:36:20.924Z,102090.70
2019-02-17T15:37:54.930Z,102078.72
2019-02-17T15:39:28.896Z,102087.53
2019-02-17T15:41:03.639Z,102089.25
2019-02-17T15:42:37.662Z,102086.22
2019-02-17T15:44:11.659Z,102089.28
2019-02-17T15:45:45.532Z,102091.14
2019-02-17T15:47:20.195Z,102084.93
2019-02-17T15:48:53.251Z,102086.11
2019-02-17T15:50:26.931Z,102079.56
2019-02-17T15:52:00.806Z,102088.00
2019-02-17T15:53:34.569Z,102087.00
2019-02-17T15:55:07.552Z,102089.73
2019-02-17T15:56:40.609Z,102095.14
2019-02-17T15:58:14.492Z,102096.67
2019-02-17T15:59:48.269Z,102097.86
2019-02-17T16:01:22.128Z,102103.27
2019-02-17T16:02:55.930Z,102107.67
2019-02-17T16:04:28.972Z,102112.89
2019-02-17T16:06:03.542Z,102110.72
2019-02-17T16:07:37.331Z,102119.47
2019-02-17T16:09:11.238Z,102114.73
2019-02-17T16:10:47.027Z,102123.18
2019-02-17T16:12:21.687Z,102114.09
2019-02-17T16:13:55.481Z,102116.45
2019-02-17T16:15:31.457Z,102116.27
2019-02-17T16:17:05.499Z,102113.23
2019-02-17T16:18:39.445Z,102115.27
2019-02-17T16:20:13.470Z,102113.77
2019-02-17T16:21:47.427Z,102106.32
2019-02-17T16:23:21.478Z,102112.41
2019-02-17T16:24:55.585Z,102114.77
2019-02-17T16:26:30.000Z,102117.83
2019-02-17T16:28:04.750Z,102117.46
2019-02-17T16:29:38.775Z,102118.14
2019-02-17T16:31:12.495Z,102123.72
2019-02-17T16:32:46.489Z,102123.89
2019-02-17T16:34:21.364Z,102126.26
2019-02-17T16:35:55.154Z,102124.58
2019-02-17T16:37:29.160Z,102128.63
2019-02-17T16:39:03.161Z,102125.92
2019-02-17T16:40:37.913Z,102127.92
2019-02-17T16:42:11.785Z,102127.77
2019-02-17T16:43:44.687Z,102133.16
2019-02-17T16:45:18.988Z,102125.58
2019-02-17T16:46:52.890Z,102120.69
2019-02-17T16:48:26.889Z,102119.52
2019-02-17T16:50:00.992Z,102120.53
2019-02-17T16:51:34.785Z,102112.94
2019-02-17T16:53:08.895Z,102118.14
2019-02-17T16:54:42.908Z,102113.59
2019-02-17T16:56:16.912Z,102122.20
2019-02-17T16:57:51.226Z,102127.25
2019-02-17T16:59:26.150Z,102128.27
2019-02-17T17:01:00.141Z,102126.08
2019-02-17T17:02:34.037Z,102119.00
2019-02-17T17:04:08.162Z,102122.38
2019-02-17T17:05:42.128Z,102124.23
2019-02-17T17:07:16.245Z,102122.19
2019-02-17T17:08:50.204Z,102123.20
2019-02-17T17:10:23.364Z,102129.95
2019-02-17T17:11:57.067Z,102125.56
2019-02-17T17:13:32.087Z,102126.07
2019-02-17T17:15:07.013Z,102127.42
2019-02-17T17:16:41.033Z,102128.44
2019-02-17T17:18:14.923Z,102120.85
2019-02-17T17:19:48.727Z,102121.36
2019-02-17T17:21:22.726Z,102114.28
2019-02-17T17:22:57.958Z,102112.77
2019-02-17T17:24:32.371Z,102104.33
2019-02-17T17:26:06.171Z,102108.89
2019-02-17T17:27:41.483Z,102104.33
2019-02-17T17:29:15.805Z,102105.34
2019-02-17T17:30:50.035Z,102108.05
2019-02-17T17:32:24.037Z,102109.91
2019-02-17T17:33:57.870Z,102104.14
2019-02-17T17:35:32.786Z,102115.44
2019-02-17T17:37:06.214Z,102109.38
2019-02-17T17:38:40.145Z,102113.75
2019-02-17T17:40:13.020Z,102104.31
2019-02-17T17:41:46.224Z,102107.69
2019-02-17T17:43:21.453Z,102111.41
2019-02-17T17:44:55.563Z,102112.75
2019-02-17T17:46:30.579Z,102111.91
2019-02-17T17:48:04.594Z,102119.16
2019-02-17T17:49:38.292Z,102118.83
2019-02-17T17:51:12.366Z,102113.43
2019-02-17T17:52:46.398Z,102121.52
2019-02-17T17:54:20.434Z,102113.09
2019-02-17T17:55:54.619Z,102118.13
2019-02-17T17:57:28.624Z,102115.59